CND4 weather

Stanhope Municipal Airport
Haliburton, Ontario, Canada

Public forecast

Using degrees Celsius for public forecast. Weather courtesy of forecast.io.

Closest aviation weather report (METAR) to Stanhope Municipal Airport

Closest report is Muskoka Airport, 29.3 nm (54.3 km) WSW. Retrieved 2019/11/21 15:00 UTC (24 minutes ago):

CYQA 211500Z AUTO 13007KT 3SM BR OVC020 01/00 A3005 RMK PRESFR SLP192

Closest aviation forecast (TAF) to Stanhope Municipal Airport

Closest forecast is Muskoka Airport, 29.3 nm (54.3 km) WSW. Retrieved 2019/11/21 13:42 UTC (2 hours ago):

TAF CYQA 211238Z 2113/2201 VRB03KT 11/2SM BR BKN002 OVC030 TEMPO 2113/2116 6SM BR SCT002 OVC030 FM211600 15012G22KT P6SM SCT020 OVC090 TEMPO 2116/2120 BKN020 OVC090 FM212000 15012G22KT P6SM BKN030 OVC060 FM212100 15012G22KT 6SM -RA BR SCT008 OVC020 RMK FCST BASED ON AUTO OBS NXT FCST BY 212000Z